No particular awareness of the weather is required.    There are no Weather-warnings


Meteo18 Weather Cam more information Meteo18 Weather Cam


Thunder radar more information blitzortung!


Rain radar more information rain snow radar


Visit our other weather sites:

Template documentation
and downloads

And another site



Weather Underground History page Text

Daily Summary for July 30, 2017 Units:  English    Metric   Both
« Previous Day
Next Day »
Daily Weekly Monthly Yearly Custom
  High: Low: Average:
Temperature: 78.6 °F 63 °F 70.5 °F
Dew Point: 64.4 °F 56.5 °F 59.9 °F
Humidity: 92 % 48 % 71 %
Wind Speed: 19 mph 0 mph 5 mph
Wind Gust: 20 mph - -
Wind:- - SW
Pressure: 30 in 29.9 in -
Precipitation: 0.02 in    
Historical Graphs
 
 
Tabular Data for July 30, 2017
Time Temperature Dew Point Pressure Wind Wind Speed Wind Gust Humidity Rainfall Rate (Hourly)
00:02 71.2 °F 58.8 °F 29.9 in SSW 2 mph 7 mph 65 % 0 in
00:12 70.2 °F 58.6 °F 29.9 in Calm   7 mph 67 % 0 in
00:17 70 °F 59 °F 29.9 in SSW 1 mph 4 mph 68 % 0 in
00:22 70 °F 59.4 °F 29.9 in SW 3 mph 4 mph 69 % 0 in
00:32 70.3 °F 59.7 °F 29.9 in SW 3 mph 5 mph 69 % 0 in
00:42 70.3 °F 59.7 °F 29.9 in SW 6 mph 6 mph 69 % 0 in
00:52 70.2 °F 59.5 °F 29.9 in WSW 4 mph 8 mph 69 % 0 in
00:57 70 °F 59.7 °F 29.9 in WSW 4 mph 8 mph 70 % 0 in
01:02 69.3 °F 59.5 °F 29.9 in SW 4 mph 7 mph 71 % 0 in
01:12 68 °F 59.4 °F 29.9 in SW 4 mph 7 mph 74 % 0 in
01:17 68.4 °F 59.4 °F 29.9 in SSW 2 mph 6 mph 73 % 0 in
01:22 68.7 °F 59.7 °F 29.9 in SSW 2 mph 7 mph 73 % 0 in
01:32 67.6 °F 59 °F 29.9 in SSE 1 mph 7 mph 74 % 0 in
01:37 66.7 °F 58.6 °F 29.9 in Calm   6 mph 75 % 0 in
01:42 66 °F 58.3 °F 29.9 in SSW 2 mph 6 mph 76 % 0 in
01:52 65.3 °F 58.6 °F 29.9 in SW 2 mph 3 mph 79 % 0 in
01:57 65.3 °F 58.6 °F 29.9 in South 2 mph 4 mph 79 % 0 in
02:02 65.1 °F 58.5 °F 29.9 in South 3 mph 4 mph 79 % 0 in
02:12 64.8 °F 58.8 °F 29.9 in SSW 3 mph 4 mph 81 % 0 in
02:17 65.5 °F 59.2 °F 29.9 in SSW 2 mph 5 mph 80 % 0 in
02:27 65.1 °F 58.5 °F 29.9 in SSW 3 mph 6 mph 79 % 0 in
02:32 64.8 °F 58.5 °F 29.9 in SSW 4 mph 6 mph 80 % 0 in
02:37 64.2 °F 58.3 °F 29.9 in SSW 3 mph 5 mph 81 % 0 in
02:47 63.9 °F 58.6 °F 29.9 in SW 4 mph 5 mph 83 % 0 in
02:52 63.7 °F 58.5 °F 29.9 in SW 4 mph 5 mph 83 % 0 in
02:57 63.9 °F 59 °F 29.9 in SSW 4 mph 5 mph 84 % 0 in
03:02 64.2 °F 59.4 °F 29.9 in SSW 4 mph 6 mph 84 % 0 in
03:12 65.5 °F 60.3 °F 29.9 in SW 5 mph 9 mph 83 % 0 in
03:17 65.8 °F 60.8 °F 29.9 in WSW 8 mph 10 mph 84 % 0 in
03:22 66.2 °F 60.8 °F 29.9 in SSW 4 mph 13 mph 83 % 0 in
03:27 66.4 °F 60.8 °F 29.9 in SW 4 mph 13 mph 82 % 0 in
03:32 66.4 °F 60.8 °F 29.9 in SSW 7 mph 13 mph 82 % 0 in
03:42 66.2 °F 60.8 °F 29.9 in WSW 7 mph 12 mph 83 % 0 in
03:52 66 °F 60.6 °F 29.9 in SW 7 mph 12 mph 83 % 0 in
03:57 66 °F 60.6 °F 29.9 in SW 5 mph 11 mph 83 % 0 in
04:02 66 °F 60.6 °F 29.9 in SW 9 mph 11 mph 83 % 0 in
04:12 66 °F 60.6 °F 29.9 in WSW 5 mph 12 mph 83 % 0 in
04:17 66 °F 60.6 °F 29.9 in SW 4 mph 12 mph 83 % 0 in
04:22 65.8 °F 60.6 °F 29.9 in WSW 6 mph 10 mph 83 % 0 in
04:32 65.7 °F 60.6 °F 29.9 in SSW 6 mph 10 mph 84 % 0 in
04:42 65.8 °F 60.8 °F 29.9 in SW 6 mph 12 mph 84 % 0 in
04:47 65.8 °F 60.8 °F 29.9 in SSW 4 mph 13 mph 84 % 0 in
04:52 65.8 °F 60.8 °F 29.9 in SW 4 mph 13 mph 84 % 0 in
04:57 65.7 °F 61 °F 29.9 in SSW 7 mph 13 mph 85 % 0 in
05:02 65.7 °F 61 °F 29.9 in SW 5 mph 10 mph 85 % 0 in
05:12 65.5 °F 61.2 °F 29.9 in SW 4 mph 11 mph 86 % 0 in
05:17 65.5 °F 61.2 °F 29.9 in SW 3 mph 11 mph 86 % 0 in
05:22 65.3 °F 61 °F 29.9 in WSW 4 mph 11 mph 86 % 0 in
05:32 65.1 °F 61.2 °F 29.9 in WSW 6 mph 11 mph 87 % 0.01 in
05:42 64.8 °F 61.5 °F 29.9 in SSW 6 mph 11 mph 89 % 0.01 in
05:47 64.6 °F 61.3 °F 29.9 in SW 6 mph 11 mph 89 % 0.01 in
05:52 64.6 °F 61.3 °F 29.9 in SSW 5 mph 11 mph 89 % 0.01 in
05:57 64.2 °F 61.2 °F 29.9 in SSW 5 mph 11 mph 90 % 0.01 in
06:02 64 °F 60.8 °F 29.9 in SSW 2 mph 10 mph 89 % 0.01 in
06:12 63.3 °F 60.3 °F 29.9 in SSW 2 mph 10 mph 90 % 0.01 in
06:17 63.7 °F 61 °F 29.9 in SW 4 mph 10 mph 91 % 0.01 in
06:22 63.9 °F 60.8 °F 29.9 in WSW 3 mph 10 mph 90 % 0.01 in
06:32 63.9 °F 60.8 °F 29.9 in SSW 5 mph 9 mph 90 % 0.01 in
06:37 63.9 °F 60.8 °F 29.9 in SW 3 mph 9 mph 90 % 0 in
06:42 63.7 °F 60.6 °F 29.9 in SW 2 mph 11 mph 90 % 0 in
06:52 63.1 °F 60.4 °F 29.9 in SSW 3 mph 11 mph 91 % 0 in
07:02 63 °F 60.3 °F 29.9 in SW 3 mph 5 mph 91 % 0 in
07:07 63 °F 60.6 °F 29.9 in SW 4 mph 5 mph 92 % 0 in
07:12 63.1 °F 60.8 °F 29.9 in SW 5 mph 7 mph 92 % 0 in
07:22 63.5 °F 61.2 °F 29.9 in SW 8 mph 8 mph 92 % 0 in
07:37 64.2 °F 61.5 °F 29.9 in SSW 2 mph 10 mph 91 % 0 in
07:42 64.6 °F 61.9 °F 29.9 in SW 3 mph 10 mph 91 % 0 in
07:52 64.8 °F 61.7 °F 29.9 in SSW 4 mph 8 mph 90 % 0 in
07:57 64.9 °F 61.9 °F 29.9 in SE 4 mph 8 mph 90 % 0 in
08:02 64.9 °F 61.9 °F 29.9 in SSW 5 mph 9 mph 90 % 0 in
08:12 65.1 °F 62.1 °F 29.9 in South 4 mph 9 mph 90 % 0 in
08:17 65.3 °F 62.2 °F 29.9 in SSW 5 mph 9 mph 90 % 0 in
08:22 65.7 °F 62.2 °F 29.9 in SSW 5 mph 12 mph 89 % 0 in
08:32 65.8 °F 62.2 °F 29.9 in SSW 7 mph 12 mph 88 % 0 in
08:37 65.8 °F 62.2 °F 29.9 in SSW 5 mph 12 mph 88 % 0 in
08:42 65.8 °F 62.4 °F 29.9 in South 5 mph 11 mph 89 % 0 in
08:47 66 °F 62.6 °F 29.9 in SW 8 mph 11 mph 89 % 0 in
08:52 66 °F 62.6 °F 29.9 in SW 5 mph 11 mph 89 % 0 in
09:02 66.2 °F 62.6 °F 29.9 in SW 5 mph 12 mph 88 % 0 in
09:07 66.4 °F 63 °F 29.9 in WSW 4 mph 12 mph 89 % 0 in
09:12 66.4 °F 63 °F 29.9 in SW 3 mph 13 mph 89 % 0 in
09:17 66.6 °F 63.1 °F 29.9 in SW 4 mph 13 mph 89 % 0 in
09:22 66.7 °F 63.1 °F 29.9 in SW 6 mph 13 mph 88 % 0.01 in
09:27 66.9 °F 63 °F 29.9 in SSW 4 mph 13 mph 87 % 0.01 in
09:32 67.3 °F 63.7 °F 29.9 in SSW 4 mph 10 mph 88 % 0.01 in
09:37 67.5 °F 63.5 °F 29.9 in WSW 11 mph 11 mph 87 % 0.01 in
09:42 67.6 °F 63.7 °F 29.9 in SW 8 mph 12 mph 87 % 0.01 in
09:52 67.8 °F 63.9 °F 29.9 in SSW 11 mph 12 mph 87 % 0.01 in
10:02 67.8 °F 63.9 °F 30 in WSW 9 mph 12 mph 87 % 0.01 in
10:12 67.8 °F 63.9 °F 30 in WSW 5 mph 15 mph 87 % 0 in
10:17 67.8 °F 63.9 °F 30 in WSW 8 mph 15 mph 87 % 0 in
10:22 67.8 °F 63.9 °F 30 in SW 8 mph 15 mph 87 % 0 in
10:32 68 °F 63.7 °F 30 in SSW 3 mph 14 mph 86 % 0 in
10:37 68 °F 63.7 °F 30 in SW 9 mph 14 mph 86 % 0 in
10:42 68.2 °F 63.9 °F 30 in West 3 mph 15 mph 86 % 0 in
10:52 68.5 °F 64.2 °F 30 in SSW 2 mph 13 mph 86 % 0 in
10:57 68.7 °F 64 °F 30 in WSW 7 mph 13 mph 85 % 0 in
11:02 69.1 °F 64.4 °F 30 in WSW 7 mph 13 mph 85 % 0 in
11:12 69.4 °F 64.4 °F 30 in SW 13 mph 13 mph 84 % 0 in
11:22 69.6 °F 64.2 °F 30 in SSW 5 mph 13 mph 83 % 0 in
11:32 70 °F 64.2 °F 30 in WSW 11 mph 15 mph 82 % 0 in
11:37 70 °F 63.5 °F 30 in WSW 14 mph 15 mph 80 % 0 in
11:42 70.3 °F 63.9 °F 30 in South 7 mph 16 mph 80 % 0 in
11:47 70.7 °F 63.5 °F 30 in WSW 8 mph 16 mph 78 % 0 in
11:52 71.4 °F 63.9 °F 30 in SW 11 mph 19 mph 77 % 0 in
12:02 71.1 °F 62.8 °F 30 in South 7 mph 19 mph 75 % 0 in
12:12 71.1 °F 62.8 °F 30 in SW 7 mph 16 mph 75 % 0 in
12:17 71.2 °F 62.1 °F 30 in WSW 19 mph 19 mph 73 % 0 in
12:22 71.2 °F 62.1 °F 30 in West 7 mph 16 mph 73 % 0 in
12:32 71.2 °F 62.1 °F 30 in WNW 5 mph 19 mph 73 % 0 in
12:37 72 °F 63.1 °F 30 in SW 9 mph 19 mph 74 % 0 in
12:42 72 °F 62.1 °F 30 in SW 9 mph 15 mph 71 % 0 in
12:52 72.3 °F 61.2 °F 30 in SW 8 mph 15 mph 68 % 0 in
13:02 72.7 °F 61.9 °F 30 in WSW 12 mph 19 mph 69 % 0 in
13:07 72.7 °F 61.2 °F 30 in SW 5 mph 19 mph 67 % 0 in
13:17 73 °F 59.7 °F 30 in WSW 8 mph 16 mph 63 % 0 in
13:22 73.6 °F 58.8 °F 30 in WSW 6 mph 16 mph 60 % 0 in
13:32 73.9 °F 58.6 °F 30 in West 6 mph 20 mph 59 % 0 in
13:42 74.1 °F 59.4 °F 30 in West 11 mph 19 mph 60 % 0 in
13:52 74.1 °F 59.7 °F 30 in West 11 mph 16 mph 61 % 0 in
13:57 74.5 °F 60.1 °F 30 in SW 8 mph 16 mph 61 % 0 in
14:02 74.5 °F 61 °F 30 in SSW 6 mph 17 mph 63 % 0 in
14:12 74.8 °F 61 °F 30 in SW 6 mph 17 mph 62 % 0 in
14:17 74.8 °F 60.1 °F 30 in SW 8 mph 17 mph 60 % 0 in
14:22 74.8 °F 59 °F 30 in SW 4 mph 17 mph 58 % 0 in
14:32 75 °F 57.2 °F 30 in SW 5 mph 18 mph 54 % 0 in
14:37 75.4 °F 58.1 °F 30 in WSW 9 mph 18 mph 55 % 0 in
14:42 75.6 °F 58.8 °F 30 in West 6 mph 18 mph 56 % 0 in
14:47 76.1 °F 58.8 °F 30 in SSE 4 mph 18 mph 55 % 0 in
14:52 76.5 °F 59.5 °F 30 in WSW 9 mph 15 mph 56 % 0 in
15:02 76.5 °F 58.6 °F 30 in SW 9 mph 13 mph 54 % 0 in
15:07 76.6 °F 60.8 °F 30 in SW 9 mph 13 mph 58 % 0 in
15:12 77.4 °F 59.4 °F 30 in SW 12 mph 14 mph 54 % 0 in
15:17 77 °F 59.5 °F 30 in SW 6 mph 14 mph 55 % 0 in
15:27 76.5 °F 57.6 °F 29.9 in SSW 9 mph 17 mph 52 % 0 in
15:32 76.3 °F 58.5 °F 29.9 in SW 5 mph 17 mph 54 % 0 in
15:42 77.2 °F 57 °F 29.9 in SW 5 mph 15 mph 50 % 0 in
15:52 77.7 °F 57.6 °F 29.9 in West 5 mph 15 mph 50 % 0 in
16:02 77.7 °F 56.5 °F 29.9 in WNW 6 mph 17 mph 48 % 0 in
16:07 77.5 °F 56.8 °F 29.9 in SW 6 mph 17 mph 49 % 0 in
16:12 77.7 °F 57.6 °F 29.9 in WSW 10 mph 14 mph 50 % 0 in
16:22 76.6 °F 56.7 °F 29.9 in WSW 5 mph 16 mph 50 % 0 in
16:32 77.5 °F 57.9 °F 29.9 in WSW 4 mph 14 mph 51 % 0 in
16:42 78.4 °F 57.7 °F 29.9 in West 9 mph 14 mph 49 % 0 in
16:47 78.4 °F 57.2 °F 29.9 in WSW 6 mph 17 mph 48 % 0 in
16:52 78.4 °F 57.2 °F 29.9 in West 9 mph 17 mph 48 % 0 in
16:57 78.4 °F 57.2 °F 29.9 in WSW 6 mph 17 mph 48 % 0 in
17:02 78.1 °F 56.8 °F 29.9 in SW 6 mph 13 mph 48 % 0 in
17:12 78.4 °F 57.7 °F 29.9 in West 8 mph 14 mph 49 % 0 in
17:17 78.6 °F 57.9 °F 29.9 in WSW 4 mph 14 mph 49 % 0 in
17:22 78.6 °F 57.2 °F 29.9 in West 8 mph 13 mph 48 % 0 in
17:32 77.7 °F 56.5 °F 29.9 in WNW 7 mph 13 mph 48 % 0 in
17:42 78.3 °F 58.6 °F 29.9 in WSW 9 mph 17 mph 51 % 0 in
17:47 78.6 °F 57.9 °F 29.9 in West 7 mph 16 mph 49 % 0 in
17:52 78.6 °F 57.2 °F 29.9 in WSW 6 mph 16 mph 48 % 0 in
17:57 78.3 °F 57.6 °F 29.9 in WSW 5 mph 16 mph 49 % 0 in
18:02 77.9 °F 57.2 °F 29.9 in West 3 mph 15 mph 49 % 0 in
18:12 77.5 °F 57.4 °F 29.9 in WSW 5 mph 11 mph 50 % 0 in
18:17 77.4 °F 57.7 °F 29.9 in SW 8 mph 14 mph 51 % 0 in
18:22 77.4 °F 58.3 °F 29.9 in WSW 3 mph 14 mph 52 % 0 in
18:32 77.7 °F 57.6 °F 29.9 in West 7 mph 12 mph 50 % 0 in
18:37 77.5 °F 57.9 °F 29.9 in West 5 mph 10 mph 51 % 0 in
18:42 77.5 °F 58.5 °F 29.9 in West 9 mph 10 mph 52 % 0 in
18:52 77.2 °F 58.3 °F 29.9 in WSW 7 mph 11 mph 52 % 0 in
19:02 76.8 °F 57.9 °F 29.9 in WSW 5 mph 12 mph 52 % 0 in
19:12 76.8 °F 57.9 °F 29.9 in West 5 mph 13 mph 52 % 0 in
19:17 76.8 °F 58.5 °F 29.9 in SSW 3 mph 13 mph 53 % 0 in
19:22 76.6 °F 58.3 °F 29.9 in WNW 6 mph 13 mph 53 % 0 in
19:32 76.5 °F 58.1 °F 29.9 in West 4 mph 13 mph 53 % 0 in
19:42 76.3 °F 57.9 °F 29.9 in WSW 8 mph 11 mph 53 % 0 in
19:47 76.1 °F 57.7 °F 29.9 in WSW 4 mph 13 mph 53 % 0 in
19:52 75.9 °F 58.1 °F 29.9 in West 4 mph 13 mph 54 % 0 in
19:57 75.9 °F 58.1 °F 29.9 in WSW 3 mph 10 mph 54 % 0 in
20:02 75.7 °F 57.9 °F 29.9 in WSW 3 mph 9 mph 54 % 0 in
20:07 75.7 °F 57.9 °F 29.9 in West 6 mph 9 mph 54 % 0 in
20:12 75.6 °F 57.7 °F 29.9 in WSW 4 mph 9 mph 54 % 0 in
20:22 75.4 °F 58.1 °F 29.9 in WSW 4 mph 10 mph 55 % 0 in
20:32 75 °F 57.7 °F 29.9 in WSW 4 mph 10 mph 55 % 0 in
20:37 74.8 °F 57.6 °F 29.9 in SW 3 mph 8 mph 55 % 0 in
20:42 74.8 °F 57.6 °F 29.9 in WSW 5 mph 8 mph 55 % 0 in
20:52 74.5 °F 57.7 °F 29.9 in WNW 2 mph 8 mph 56 % 0 in
20:57 74.3 °F 58.1 °F 29.9 in WNW 1 mph 6 mph 57 % 0 in
21:02 74.1 °F 57.9 °F 29.9 in West 2 mph 6 mph 57 % 0 in
21:12 73.9 °F 58.3 °F 29.9 in West 1 mph 6 mph 58 % 0 in
21:17 73.8 °F 58.5 °F 29.9 in West 3 mph 6 mph 59 % 0 in
21:22 73.6 °F 58.3 °F 29.9 in WSW 2 mph 6 mph 59 % 0 in
21:32 73 °F 58.3 °F 29.9 in Calm   5 mph 60 % 0 in
21:37 72.9 °F 58.1 °F 29.9 in West 1 mph 5 mph 60 % 0 in
21:42 72.7 °F 58.5 °F 29.9 in WNW 2 mph 5 mph 61 % 0 in
21:52 72.7 °F 57.9 °F 30 in West 3 mph 3 mph 60 % 0 in
21:57 72.7 °F 57.9 °F 30 in West 2 mph 8 mph 60 % 0 in
22:02 72.5 °F 57.7 °F 30 in West 3 mph 8 mph 60 % 0 in
22:12 72.1 °F 57.9 °F 30 in West 2 mph 8 mph 61 % 0 in
22:17 72 °F 57.7 °F 30 in WSW 2 mph 7 mph 61 % 0 in
22:22 71.8 °F 57.6 °F 30 in WNW 3 mph 7 mph 61 % 0 in
22:32 71.2 °F 57.6 °F 30 in West 2 mph 7 mph 62 % 0 in
22:42 70.7 °F 57.6 °F 30 in Calm   7 mph 63 % 0 in
22:47 70.5 °F 57.4 °F 30 in Calm   3 mph 63 % 0 in
22:52 70.2 °F 57.4 °F 30 in Calm   2 mph 64 % 0 in
23:02 69.6 °F 57.4 °F 30 in Calm     65 % 0 in
23:12 69.1 °F 57.2 °F 30 in WSW 2 mph   66 % 0 in
23:17 68.7 °F 57.4 °F 30 in West 1 mph 2 mph 67 % 0 in
23:22 68.4 °F 57.4 °F 30 in Calm   2 mph 68 % 0 in
23:32 68.2 °F 57.2 °F 30 in West 1 mph 2 mph 68 % 0 in
23:42 67.6 °F 57.6 °F 30 in Calm   2 mph 70 % 0 in
23:47 67.5 °F 57.4 °F 30 in Calm   2 mph 70 % 0 in
23:57 67.3 °F 57.2 °F 30 in SSW 2 mph 2 mph 70 % 0 in
Meteo18
Compliments of Weather Underground - 4 mb

Script developed by  Jim McMurry - jmcmurry@mwt.net Adapted for the template by  Wim van der Kuil - Leuven-Template.eu

You find our weather info also at:

European Weather Network

Weather Underground

Equipment we use:

Weather-station
Davis Vue

Weather-program
Meteohub

Weather-server
Raspberry PI 2 B+

Provider
1 and 1

Davis Vue

Meteohub

Raspberry PI 2 B+

1 and 1